Time;durP1;ratioP1;P1;durP2;ratioP2;P2;SDS_P1;SDS_P2;PMS_P1;PMS_P2;Temp;Humidity;BMP_temperature;BMP_pressure;BME280_temperature;BME280_humidity;BME280_pressure;Samples;Min_cycle;Max_cycle;Signal;HPM_P1;HPM_P2
2023/12/28 00:00:30;;;;;;;9.73;8.68;;;;;;;;;;5058014;28;20518;-79
2023/12/28 00:02:56;;;;;;;9.68;8.68;;;;;;;;;;5076434;28;20415;-79
2023/12/28 00:05:22;;;;;;;10.43;9.07;;;;;;;;;;5075745;28;20379;-79
2023/12/28 00:07:49;;;;;;;9.80;8.88;;;;;;;;;;5076131;28;20379;-81
2023/12/28 00:10:15;;;;;;;9.27;8.35;;;;;;;;;;5075696;28;20478;-81
2023/12/28 00:12:41;;;;;;;10.05;9.10;;;;;;;;;;5076767;28;20410;-79
2023/12/28 00:15:07;;;;;;;9.52;8.63;;;;;;;;;;5077109;28;20926;-80
2023/12/28 00:17:33;;;;;;;9.00;8.10;;;;;;;;;;5076460;28;20802;-79
2023/12/28 00:19:59;;;;;;;9.40;8.45;;;;;;;;;;5076796;28;20412;-79
2023/12/28 00:22:25;;;;;;;10.30;8.60;;;;;;;;;;5076351;28;20408;-79
2023/12/28 00:24:51;;;;;;;10.90;9.80;;;;;;;;;;5076480;28;20395;-81
2023/12/28 00:27:17;;;;;;;10.65;9.55;;;;;;;;;;5080005;28;20403;-81
2023/12/28 00:29:43;;;;;;;10.45;9.45;;;;;;;;;;5078357;28;20379;-79
2023/12/28 00:32:09;;;;;;;10.90;9.80;;;;;;;;;;5078029;28;20908;-82
2023/12/28 00:34:36;;;;;;;9.80;8.80;;;;;;;;;;5078032;28;20784;-81
2023/12/28 00:37:02;;;;;;;9.65;8.75;;;;;;;;;;5078224;28;20372;-80
2023/12/28 00:39:28;;;;;;;11.23;8.65;;;;;;;;;;5077669;28;20380;-81
2023/12/28 00:41:54;;;;;;;9.67;8.63;;;;;;;;;;5078172;28;20408;-81
2023/12/28 00:44:20;;;;;;;9.40;8.35;;;;;;;;;;5078173;28;20388;-81
2023/12/28 00:46:46;;;;;;;9.18;8.27;;;;;;;;;;5078283;28;20718;-81
2023/12/28 00:49:12;;;;;;;10.07;8.60;;;;;;;;;;5077568;28;20387;-82
2023/12/28 00:51:38;;;;;;;9.45;8.55;;;;;;;;;;5077628;28;20407;-82
2023/12/28 00:54:04;;;;;;;9.20;8.20;;;;;;;;;;5078135;28;20391;-80
2023/12/28 00:56:30;;;;;;;9.00;8.15;;;;;;;;;;5077158;28;20727;-80
2023/12/28 00:58:56;;;;;;;9.73;8.68;;;;;;;;;;5077419;28;20372;-81
2023/12/28 01:01:22;;;;;;;9.23;8.30;;;;;;;;;;5077495;28;20372;-80
2023/12/28 01:03:48;;;;;;;10.50;8.55;;;;;;;;;;5077656;28;20510;-79
2023/12/28 01:06:14;;;;;;;9.07;8.27;;;;;;;;;;5076286;28;20745;-79
2023/12/28 01:08:40;;;;;;;9.80;8.80;;;;;;;;;;5091905;28;20370;-81
2023/12/28 01:11:05;;;;;;;9.55;8.55;;;;;;;;;;5095050;28;20878;-80
2023/12/28 01:13:32;;;;;;;9.23;8.40;;;;;;;;;;5095137;28;20477;-80
2023/12/28 01:15:58;;;;;;;9.90;8.90;;;;;;;;;;5095048;28;20903;-80
2023/12/28 01:18:24;;;;;;;9.48;8.57;;;;;;;;;;5095352;28;20374;-80
2023/12/28 01:20:50;;;;;;;9.45;8.55;;;;;;;;;;5077648;28;20406;-79
2023/12/28 01:23:16;;;;;;;9.57;8.57;;;;;;;;;;5094457;28;20389;-79
2023/12/28 01:25:42;;;;;;;9.00;8.20;;;;;;;;;;5095268;28;20377;-79
2023/12/28 01:28:08;;;;;;;9.00;8.10;;;;;;;;;;5094425;28;20382;-79
2023/12/28 01:30:34;;;;;;;9.17;8.30;;;;;;;;;;5094260;28;21013;-79
2023/12/28 01:33:00;;;;;;;9.13;8.13;;;;;;;;;;5094534;28;20398;-79
2023/12/28 01:35:26;;;;;;;9.40;8.50;;;;;;;;;;5094862;28;20378;-80
2023/12/28 01:37:52;;;;;;;9.38;8.48;;;;;;;;;;5095550;28;20421;-80
2023/12/28 01:40:18;;;;;;;9.40;8.50;;;;;;;;;;5095450;28;20370;-79
2023/12/28 01:42:45;;;;;;;9.23;8.32;;;;;;;;;;5095162;28;20398;-79
2023/12/28 01:45:11;;;;;;;9.30;8.35;;;;;;;;;;5075411;28;20395;-81
2023/12/28 01:47:37;;;;;;;8.63;7.72;;;;;;;;;;5076582;28;20383;-80
2023/12/28 01:50:05;;;;;;;9.20;8.35;;;;;;;;;;5077765;28;20379;-80
2023/12/28 01:52:31;;;;;;;8.25;7.43;;;;;;;;;;5075721;28;20403;-80
2023/12/28 01:54:57;;;;;;;8.87;8.07;;;;;;;;;;5076437;28;20958;-79
2023/12/28 01:57:24;;;;;;;9.45;8.25;;;;;;;;;;5076829;28;20380;-79
2023/12/28 01:59:50;;;;;;;9.07;8.20;;;;;;;;;;5075354;28;20431;-79
2023/12/28 02:02:16;;;;;;;9.65;8.75;;;;;;;;;;5077552;28;20928;-79
2023/12/28 02:04:42;;;;;;;9.43;8.40;;;;;;;;;;5073909;28;20456;-80
2023/12/28 02:07:08;;;;;;;9.45;8.48;;;;;;;;;;5074563;28;20390;-79
2023/12/28 02:09:34;;;;;;;9.07;8.25;;;;;;;;;;5074329;28;20455;-81
2023/12/28 02:12:00;;;;;;;9.87;8.13;;;;;;;;;;5075344;28;20411;-79
2023/12/28 02:14:26;;;;;;;8.60;7.80;;;;;;;;;;5075301;28;20372;-79
2023/12/28 02:17:15;;;;;;;9.68;8.68;;;;;;;;;;5074104;28;20375;-79
2023/12/28 02:19:48;;;;;;;8.95;8.15;;;;;;;;;;5064599;28;20616;-79
2023/12/28 02:22:16;;;;;;;9.32;8.38;;;;;;;;;;5074253;28;20410;-79
2023/12/28 02:25:00;;;;;;;9.43;8.50;;;;;;;;;;5073760;28;20376;-79
2023/12/28 02:27:26;;;;;;;8.57;7.70;;;;;;;;;;5074022;28;20782;-79
2023/12/28 02:29:52;;;;;;;9.18;8.10;;;;;;;;;;5073917;28;20380;-79
2023/12/28 02:32:23;;;;;;;9.03;8.17;;;;;;;;;;5074351;28;20448;-79
2023/12/28 02:34:52;;;;;;;9.07;8.13;;;;;;;;;;5076269;28;20462;-79
2023/12/28 02:37:18;;;;;;;9.13;8.32;;;;;;;;;;5076773;28;20384;-79
2023/12/28 02:39:46;;;;;;;8.52;7.72;;;;;;;;;;5058758;28;20391;-80
2023/12/28 02:42:12;;;;;;;8.60;7.78;;;;;;;;;;5076978;28;20563;-80
2023/12/28 02:44:38;;;;;;;8.80;7.90;;;;;;;;;;5076534;28;20453;-79
2023/12/28 02:47:07;;;;;;;8.90;8.00;;;;;;;;;;5077061;28;20838;-79
2023/12/28 02:49:33;;;;;;;8.30;7.50;;;;;;;;;;5059330;28;20415;-80
2023/12/28 02:51:59;;;;;;;9.35;8.45;;;;;;;;;;5076998;28;20450;-80
2023/12/28 02:54:25;;;;;;;13.68;11.05;;;;;;;;;;5072479;28;20401;-79
2023/12/28 02:56:50;;;;;;;10.05;9.02;;;;;;;;;;5072359;28;20393;-80
2023/12/28 02:59:16;;;;;;;9.05;8.15;;;;;;;;;;5077270;28;20471;-79
2023/12/28 03:01:42;;;;;;;10.40;9.32;;;;;;;;;;5077667;28;20844;-79
2023/12/28 03:04:09;;;;;;;9.23;8.32;;;;;;;;;;5079073;28;20384;-80
2023/12/28 03:06:35;;;;;;;8.85;8.05;;;;;;;;;;5077525;28;20383;-79
2023/12/28 03:09:01;;;;;;;8.93;8.10;;;;;;;;;;5078128;28;20379;-79
2023/12/28 03:11:27;;;;;;;8.20;7.40;;;;;;;;;;5077345;28;20398;-79
2023/12/28 03:13:53;;;;;;;8.95;7.93;;;;;;;;;;5076923;28;20879;-80
2023/12/28 03:16:19;;;;;;;9.10;8.20;;;;;;;;;;5075994;28;20544;-79
2023/12/28 03:18:45;;;;;;;8.77;7.85;;;;;;;;;;5076484;28;20371;-79
2023/12/28 03:21:11;;;;;;;9.07;8.20;;;;;;;;;;5076382;28;20467;-81
2023/12/28 03:23:37;;;;;;;8.67;7.87;;;;;;;;;;5058312;28;20380;-79
2023/12/28 03:26:03;;;;;;;8.70;7.90;;;;;;;;;;5076529;28;20446;-80
2023/12/28 03:28:29;;;;;;;8.82;7.93;;;;;;;;;;5077111;28;20384;-80
2023/12/28 03:31:07;;;;;;;9.00;8.20;;;;;;;;;;5077555;28;20448;-80
2023/12/28 03:33:33;;;;;;;9.55;8.55;;;;;;;;;;5077312;28;20443;-80
2023/12/28 03:35:58;;;;;;;9.23;8.20;;;;;;;;;;5077430;28;20388;-80
2023/12/28 03:38:25;;;;;;;9.80;8.80;;;;;;;;;;5076796;28;20409;-80
2023/12/28 03:40:51;;;;;;;8.70;7.90;;;;;;;;;;5076986;28;20383;-79
2023/12/28 03:43:17;;;;;;;8.93;8.02;;;;;;;;;;5077170;28;20388;-79
2023/12/28 03:45:46;;;;;;;9.25;8.35;;;;;;;;;;5075795;28;20380;-79
2023/12/28 03:48:12;;;;;;;9.70;8.70;;;;;;;;;;5076775;28;20390;-80
2023/12/28 03:50:38;;;;;;;10.63;8.77;;;;;;;;;;5076730;28;20376;-79
2023/12/28 03:53:04;;;;;;;8.57;7.88;;;;;;;;;;5076895;28;20757;-81
2023/12/28 03:55:30;;;;;;;8.57;7.78;;;;;;;;;;5077330;28;20372;-79
2023/12/28 03:57:56;;;;;;;8.07;7.38;;;;;;;;;;5076261;28;20372;-79
2023/12/28 04:00:23;;;;;;;8.57;7.78;;;;;;;;;;5076601;28;20394;-81
2023/12/28 04:02:49;;;;;;;8.88;7.72;;;;;;;;;;5075813;28;20390;-80
2023/12/28 04:05:15;;;;;;;8.43;7.63;;;;;;;;;;5076424;28;20387;-80
2023/12/28 04:07:41;;;;;;;8.15;7.35;;;;;;;;;;5076499;28;20833;-79
2023/12/28 04:10:07;;;;;;;8.13;7.25;;;;;;;;;;5077734;28;20409;-81
2023/12/28 04:12:33;;;;;;;8.23;7.47;;;;;;;;;;5077101;28;20453;-79
2023/12/28 04:14:59;;;;;;;8.55;7.75;;;;;;;;;;5075275;28;20391;-80
2023/12/28 04:17:25;;;;;;;8.05;7.25;;;;;;;;;;5075576;28;20383;-79
2023/12/28 04:19:51;;;;;;;8.13;7.32;;;;;;;;;;5076337;28;20760;-81
2023/12/28 04:22:17;;;;;;;8.52;7.72;;;;;;;;;;5077116;28;20411;-81
2023/12/28 04:24:43;;;;;;;8.27;7.50;;;;;;;;;;5077785;28;20397;-80
2023/12/28 04:27:09;;;;;;;8.27;7.38;;;;;;;;;;5077279;28;20379;-81
2023/12/28 04:29:36;;;;;;;8.50;7.53;;;;;;;;;;5077905;28;20379;-81
2023/12/28 04:32:02;;;;;;;7.88;7.18;;;;;;;;;;5077632;28;20407;-81
2023/12/28 04:34:28;;;;;;;8.85;8.00;;;;;;;;;;5076598;28;20889;-80
2023/12/28 04:36:54;;;;;;;8.52;7.72;;;;;;;;;;5077487;28;20379;-81
2023/12/28 04:39:19;;;;;;;7.95;7.25;;;;;;;;;;5077745;28;20387;-81
2023/12/28 04:41:45;;;;;;;8.82;7.93;;;;;;;;;;5076587;28;20427;-80
2023/12/28 04:44:11;;;;;;;8.93;8.02;;;;;;;;;;5076306;28;20394;-79
2023/12/28 04:46:42;;;;;;;8.40;7.53;;;;;;;;;;5075209;28;20450;-79
2023/12/28 04:49:08;;;;;;;9.55;8.55;;;;;;;;;;5074728;28;20419;-79
2023/12/28 04:51:34;;;;;;;8.82;8.05;;;;;;;;;;5075002;28;20435;-79
2023/12/28 04:54:00;;;;;;;8.82;7.20;;;;;;;;;;5075886;28;20881;-79
2023/12/28 04:56:26;;;;;;;9.00;8.13;;;;;;;;;;5076282;28;20436;-81
2023/12/28 04:58:52;;;;;;;9.00;8.10;;;;;;;;;;5080256;28;20380;-81
2023/12/28 05:01:18;;;;;;;8.48;7.57;;;;;;;;;;5077933;28;20885;-81
2023/12/28 05:03:44;;;;;;;8.63;7.72;;;;;;;;;;5076816;28;20375;-81
2023/12/28 05:06:10;;;;;;;9.25;8.35;;;;;;;;;;5076875;28;20372;-81
2023/12/28 05:08:36;;;;;;;9.07;8.27;;;;;;;;;;5077203;28;20438;-80
2023/12/28 05:11:02;;;;;;;9.00;7.90;;;;;;;;;;5077584;28;20475;-80
2023/12/28 05:13:28;;;;;;;8.43;7.63;;;;;;;;;;5076908;28;20442;-81
2023/12/28 05:15:54;;;;;;;7.88;7.18;;;;;;;;;;5077262;28;20451;-79
2023/12/28 05:18:20;;;;;;;8.50;7.72;;;;;;;;;;5076389;28;20380;-80
2023/12/28 05:20:46;;;;;;;7.65;6.95;;;;;;;;;;5076261;28;20831;-80
2023/12/28 05:23:12;;;;;;;9.25;8.35;;;;;;;;;;5076115;28;20419;-79
2023/12/28 05:25:38;;;;;;;8.73;7.45;;;;;;;;;;5074584;28;20379;-80
2023/12/28 05:28:04;;;;;;;8.15;7.45;;;;;;;;;;5074396;28;20878;-81
2023/12/28 05:30:30;;;;;;;7.78;7.07;;;;;;;;;;5076641;28;20394;-80
2023/12/28 05:32:56;;;;;;;8.43;7.60;;;;;;;;;;5075764;28;20395;-79
2023/12/28 05:35:22;;;;;;;11.03;8.60;;;;;;;;;;5076835;28;20417;-81
2023/12/28 05:37:48;;;;;;;8.65;7.85;;;;;;;;;;5076950;28;20395;-81
2023/12/28 05:40:14;;;;;;;10.52;8.50;;;;;;;;;;5076199;28;20372;-80
2023/12/28 05:42:40;;;;;;;8.27;7.47;;;;;;;;;;5076757;28;20404;-81
2023/12/28 05:45:06;;;;;;;8.27;7.45;;;;;;;;;;5077085;28;20413;-81
2023/12/28 05:47:32;;;;;;;9.52;8.32;;;;;;;;;;5077168;28;20384;-80
2023/12/28 05:49:58;;;;;;;9.52;8.55;;;;;;;;;;5078144;28;20448;-80
2023/12/28 05:52:24;;;;;;;9.95;8.95;;;;;;;;;;5077661;28;20412;-81
2023/12/28 05:54:50;;;;;;;9.80;8.88;;;;;;;;;;5075407;28;20459;-79
2023/12/28 05:57:17;;;;;;;11.02;9.30;;;;;;;;;;5073789;28;20368;-79
2023/12/28 05:59:43;;;;;;;9.88;8.98;;;;;;;;;;5074975;28;20368;-80
2023/12/28 06:02:09;;;;;;;10.00;9.00;;;;;;;;;;5076591;28;20450;-81
2023/12/28 06:04:35;;;;;;;9.05;8.32;;;;;;;;;;5076894;28;20376;-80
2023/12/28 06:07:02;;;;;;;9.40;8.50;;;;;;;;;;5076912;28;20379;-81
2023/12/28 06:09:28;;;;;;;9.77;8.88;;;;;;;;;;5079588;28;20379;-80
2023/12/28 06:11:54;;;;;;;9.02;8.20;;;;;;;;;;5080679;28;20399;-81
2023/12/28 06:14:20;;;;;;;8.60;7.80;;;;;;;;;;5081569;28;20548;-81
2023/12/28 06:16:46;;;;;;;8.25;7.45;;;;;;;;;;5080733;28;20372;-81
2023/12/28 06:19:12;;;;;;;8.27;7.57;;;;;;;;;;5080126;28;20462;-79
2023/12/28 06:21:39;;;;;;;9.13;8.32;;;;;;;;;;5080610;28;20380;-81
2023/12/28 06:24:05;;;;;;;9.23;8.43;;;;;;;;;;5081041;28;20726;-80
2023/12/28 06:26:31;;;;;;;8.82;8.05;;;;;;;;;;5080149;28;20372;-80
2023/12/28 06:28:57;;;;;;;9.15;8.25;;;;;;;;;;5080423;28;20857;-81
2023/12/28 06:31:23;;;;;;;9.40;8.60;;;;;;;;;;5080296;28;20411;-81
2023/12/28 06:33:48;;;;;;;9.40;8.50;;;;;;;;;;5079904;28;20494;-81
2023/12/28 06:36:14;;;;;;;9.70;8.70;;;;;;;;;;5079312;28;20733;-81
2023/12/28 06:38:40;;;;;;;9.20;8.35;;;;;;;;;;5080162;28;20414;-80
2023/12/28 06:41:13;;;;;;;17.50;15.50;;;;;;;;;;5079386;28;21328;-80
2023/12/28 06:43:39;;;;;;;10.85;9.75;;;;;;;;;;5079163;28;20372;-81
2023/12/28 06:46:05;;;;;;;9.82;8.93;;;;;;;;;;5079059;28;20947;-80
2023/12/28 06:48:31;;;;;;;8.27;7.50;;;;;;;;;;5079669;28;20388;-80
2023/12/28 06:50:57;;;;;;;10.15;9.13;;;;;;;;;;5093814;28;20720;-81
2023/12/28 06:53:23;;;;;;;9.30;8.50;;;;;;;;;;5100245;28;20417;-81
2023/12/28 06:55:49;;;;;;;9.10;8.30;;;;;;;;;;5100396;28;20457;-80
2023/12/28 06:58:15;;;;;;;8.95;8.15;;;;;;;;;;5098504;28;20366;-81
2023/12/28 07:00:43;;;;;;;8.27;7.57;;;;;;;;;;5100262;28;20378;-81
2023/12/28 07:03:09;;;;;;;8.82;8.02;;;;;;;;;;5090222;28;20495;-80
2023/12/28 07:05:35;;;;;;;9.15;8.35;;;;;;;;;;5079347;28;20383;-81
2023/12/28 07:08:01;;;;;;;9.27;8.10;;;;;;;;;;5079021;28;20707;-81
2023/12/28 07:10:27;;;;;;;8.50;7.70;;;;;;;;;;5079841;28;20414;-79
2023/12/28 07:12:53;;;;;;;9.00;8.20;;;;;;;;;;5060589;28;20395;-81
2023/12/28 07:15:19;;;;;;;9.32;8.45;;;;;;;;;;5079582;28;20398;-80
2023/12/28 07:17:45;;;;;;;8.88;8.07;;;;;;;;;;5079197;28;20473;-81
2023/12/28 07:20:11;;;;;;;9.18;8.35;;;;;;;;;;5078873;28;20375;-83
2023/12/28 07:22:38;;;;;;;9.13;8.25;;;;;;;;;;5078757;28;20478;-82
2023/12/28 07:25:07;;;;;;;9.82;9.00;;;;;;;;;;5080575;28;20383;-82
2023/12/28 07:27:33;;;;;;;8.90;8.20;;;;;;;;;;5081387;28;20963;-81
2023/12/28 07:30:00;;;;;;;9.55;8.65;;;;;;;;;;5080677;28;20379;-81
2023/12/28 07:32:26;;;;;;;9.85;9.05;;;;;;;;;;5080388;28;20447;-81
2023/12/28 07:34:55;;;;;;;9.65;8.75;;;;;;;;;;5080313;28;20858;-80
2023/12/28 07:37:21;;;;;;;10.00;9.20;;;;;;;;;;5080286;28;20512;-82
2023/12/28 07:39:47;;;;;;;9.88;8.98;;;;;;;;;;5080643;28;20384;-81
2023/12/28 07:42:13;;;;;;;9.75;8.82;;;;;;;;;;5079678;28;20423;-81
2023/12/28 07:44:40;;;;;;;10.30;9.30;;;;;;;;;;5079646;28;20967;-80
2023/12/28 07:47:06;;;;;;;10.63;9.63;;;;;;;;;;5080441;28;20387;-81
2023/12/28 07:49:32;;;;;;;9.98;9.05;;;;;;;;;;5079249;28;20406;-80
2023/12/28 07:51:58;;;;;;;10.75;9.82;;;;;;;;;;5076793;28;20412;-80
2023/12/28 07:54:24;;;;;;;9.93;9.13;;;;;;;;;;5077021;28;20371;-81
2023/12/28 07:56:50;;;;;;;10.93;10.00;;;;;;;;;;5077141;28;20374;-79
2023/12/28 07:59:16;;;;;;;10.67;9.67;;;;;;;;;;5076390;28;20898;-79
2023/12/28 08:01:42;;;;;;;10.98;9.88;;;;;;;;;;5075904;28;20415;-79
2023/12/28 08:04:08;;;;;;;9.95;9.13;;;;;;;;;;5076026;28;20380;-80
2023/12/28 08:06:34;;;;;;;10.57;9.65;;;;;;;;;;5080209;28;20387;-82
2023/12/28 08:09:00;;;;;;;10.65;9.65;;;;;;;;;;5078756;28;20388;-81
2023/12/28 08:11:29;;;;;;;10.07;9.18;;;;;;;;;;5077832;28;20375;-81
2023/12/28 08:13:55;;;;;;;9.88;8.98;;;;;;;;;;5060084;28;20406;-81
2023/12/28 08:16:21;;;;;;;9.40;8.60;;;;;;;;;;5077897;28;20384;-81
2023/12/28 08:18:47;;;;;;;9.30;8.50;;;;;;;;;;5077495;28;20453;-81
2023/12/28 08:21:13;;;;;;;11.18;10.13;;;;;;;;;;5077918;28;20407;-79
2023/12/28 08:23:39;;;;;;;11.13;10.13;;;;;;;;;;5077859;28;20391;-79
2023/12/28 08:26:06;;;;;;;10.25;9.35;;;;;;;;;;5079909;28;20872;-80
2023/12/28 08:28:32;;;;;;;11.50;10.40;;;;;;;;;;5077930;28;20382;-81
2023/12/28 08:30:58;;;;;;;10.63;9.73;;;;;;;;;;5079534;28;20458;-81
2023/12/28 08:33:25;;;;;;;10.27;9.27;;;;;;;;;;5079131;28;20792;-81
2023/12/28 08:35:51;;;;;;;10.18;9.27;;;;;;;;;;5079213;28;20730;-81
2023/12/28 08:38:17;;;;;;;9.57;8.77;;;;;;;;;;5079640;28;20395;-82
2023/12/28 08:40:44;;;;;;;10.15;9.25;;;;;;;;;;5080005;28;20419;-80
2023/12/28 08:43:10;;;;;;;10.65;9.13;;;;;;;;;;5079569;28;20395;-80
2023/12/28 08:45:36;;;;;;;10.18;9.27;;;;;;;;;;5079995;28;20391;-80
2023/12/28 08:48:02;;;;;;;9.50;8.60;;;;;;;;;;5081873;28;20441;-80
2023/12/28 08:50:28;;;;;;;8.60;7.80;;;;;;;;;;5079142;28;20860;-81
2023/12/28 08:52:55;;;;;;;8.68;7.88;;;;;;;;;;5078221;28;20407;-81
2023/12/28 08:55:21;;;;;;;8.35;7.65;;;;;;;;;;5068232;28;20416;-81
2023/12/28 08:57:47;;;;;;;8.40;7.70;;;;;;;;;;5078659;28;20391;-81
2023/12/28 09:00:17;;;;;;;7.80;7.20;;;;;;;;;;5078470;28;20872;-81
2023/12/28 09:02:43;;;;;;;8.23;7.53;;;;;;;;;;5077879;28;20481;-81
2023/12/28 09:05:10;;;;;;;8.63;7.88;;;;;;;;;;5078120;28;20384;-81
2023/12/28 09:07:42;;;;;;;13.43;12.33;;;;;;;;;;5078010;28;20376;-80
2023/12/28 09:10:08;;;;;;;11.52;10.43;;;;;;;;;;5079212;28;20443;-81
2023/12/28 09:12:34;;;;;;;12.87;11.73;;;;;;;;;;5078483;28;20458;-81
2023/12/28 09:15:00;;;;;;;10.90;10.00;;;;;;;;;;5078951;28;20368;-81
2023/12/28 09:17:26;;;;;;;11.68;10.57;;;;;;;;;;5079933;28;20551;-81
2023/12/28 09:19:52;;;;;;;11.73;10.83;;;;;;;;;;5085163;28;20439;-80
2023/12/28 09:22:18;;;;;;;12.20;11.07;;;;;;;;;;5082973;28;20417;-81
2023/12/28 09:24:44;;;;;;;11.70;10.65;;;;;;;;;;5078614;28;20376;-80
2023/12/28 09:27:10;;;;;;;15.30;13.23;;;;;;;;;;5078304;28;20388;-81
2023/12/28 09:29:36;;;;;;;12.48;11.18;;;;;;;;;;5077764;28;20382;-81
2023/12/28 09:32:02;;;;;;;14.82;12.40;;;;;;;;;;5077719;28;20815;-81
2023/12/28 09:34:28;;;;;;;17.95;14.82;;;;;;;;;;5060031;28;20888;-81
2023/12/28 09:36:54;;;;;;;12.43;11.23;;;;;;;;;;5055820;28;20447;-81
2023/12/28 09:39:20;;;;;;;11.73;10.63;;;;;;;;;;5057436;28;20409;-80
2023/12/28 09:41:49;;;;;;;15.27;13.77;;;;;;;;;;5057731;28;20405;-81
2023/12/28 09:44:15;;;;;;;13.27;11.98;;;;;;;;;;5059513;28;20385;-80
2023/12/28 09:46:42;;;;;;;13.60;12.20;;;;;;;;;;5061060;28;20393;-81
2023/12/28 09:49:09;;;;;;;12.18;11.02;;;;;;;;;;5061463;28;20443;-80
2023/12/28 09:51:35;;;;;;;11.90;10.70;;;;;;;;;;5061509;28;20464;-81
2023/12/28 09:54:01;;;;;;;12.65;11.35;;;;;;;;;;5062692;28;20385;-81
2023/12/28 09:56:27;;;;;;;13.25;11.82;;;;;;;;;;5062371;28;20421;-80
2023/12/28 09:58:53;;;;;;;11.57;10.50;;;;;;;;;;5062205;28;20373;-81
2023/12/28 10:01:20;;;;;;;12.20;10.98;;;;;;;;;;5061625;28;20992;-83
2023/12/28 10:03:46;;;;;;;11.38;10.25;;;;;;;;;;5077494;28;20389;-80
2023/12/28 10:06:15;;;;;;;11.07;9.97;;;;;;;;;;5061239;28;20405;-80
2023/12/28 10:08:46;;;;;;;11.03;9.93;;;;;;;;;;5077430;28;20385;-81
2023/12/28 10:11:12;;;;;;;12.05;9.57;;;;;;;;;;5063154;28;20437;-81
2023/12/28 10:13:38;;;;;;;11.30;10.20;;;;;;;;;;5060686;28;20466;-81
2023/12/28 10:16:05;;;;;;;12.10;10.20;;;;;;;;;;5060699;28;20380;-80
2023/12/28 10:18:31;;;;;;;13.10;11.85;;;;;;;;;;5060168;28;20377;-81
2023/12/28 10:20:57;;;;;;;13.35;12.05;;;;;;;;;;5075404;28;20400;-80
2023/12/28 10:23:23;;;;;;;13.48;12.07;;;;;;;;;;5060473;28;20389;-81
2023/12/28 10:25:53;;;;;;;12.35;11.15;;;;;;;;;;5061153;28;20488;-81
2023/12/28 10:28:19;;;;;;;13.50;12.18;;;;;;;;;;5061196;28;20464;-82
2023/12/28 10:30:46;;;;;;;11.90;10.80;;;;;;;;;;5062867;28;20377;-80
2023/12/28 10:33:12;;;;;;;11.55;10.00;;;;;;;;;;5081211;28;20450;-81
2023/12/28 10:35:38;;;;;;;11.83;10.63;;;;;;;;;;5080816;28;20382;-82
2023/12/28 10:38:04;;;;;;;10.98;9.90;;;;;;;;;;5080671;28;20390;-81
2023/12/28 10:40:32;;;;;;;11.35;10.25;;;;;;;;;;5082131;28;21257;-81
2023/12/28 10:43:02;;;;;;;11.10;10.00;;;;;;;;;;5099182;28;20552;-81
2023/12/28 10:45:29;;;;;;;22.83;10.63;;;;;;;;;;5083800;28;20398;-81
2023/12/28 10:48:08;;;;;;;15.55;10.82;;;;;;;;;;5080008;28;20380;-82
2023/12/28 10:50:41;;;;;;;11.40;10.30;;;;;;;;;;5080535;28;20376;-83
2023/12/28 10:53:16;;;;;;;12.10;10.80;;;;;;;;;;5080814;28;20408;-83
2023/12/28 10:55:47;;;;;;;14.23;12.83;;;;;;;;;;5080486;28;20424;-83
2023/12/28 10:58:19;;;;;;;15.32;13.93;;;;;;;;;;5080177;28;20368;-82
2023/12/28 11:00:50;;;;;;;14.85;13.45;;;;;;;;;;5080077;28;20367;-82
2023/12/28 11:03:19;;;;;;;14.05;12.70;;;;;;;;;;5080240;28;20414;-82
2023/12/28 11:05:46;;;;;;;14.25;12.85;;;;;;;;;;5080409;28;20394;-81
2023/12/28 11:08:12;;;;;;;13.20;11.90;;;;;;;;;;5081030;28;20395;-82
2023/12/28 11:10:39;;;;;;;15.73;14.02;;;;;;;;;;5062382;28;20447;-82
2023/12/28 11:13:05;;;;;;;14.48;12.98;;;;;;;;;;5079785;28;20419;-82
2023/12/28 11:15:32;;;;;;;15.43;13.65;;;;;;;;;;5079547;28;20741;-82
2023/12/28 11:17:59;;;;;;;14.05;12.63;;;;;;;;;;5079260;28;20372;-80
2023/12/28 11:20:25;;;;;;;13.63;12.27;;;;;;;;;;5079284;28;20445;-79
2023/12/28 11:22:51;;;;;;;14.55;12.90;;;;;;;;;;5078745;28;20387;-82
2023/12/28 11:25:18;;;;;;;15.55;13.25;;;;;;;;;;5078667;28;20376;-81
2023/12/28 11:27:46;;;;;;;16.75;14.45;;;;;;;;;;5078839;28;20386;-81
2023/12/28 11:30:12;;;;;;;16.13;14.15;;;;;;;;;;5078869;28;20818;-80
2023/12/28 11:32:39;;;;;;;16.05;14.32;;;;;;;;;;5078691;28;20412;-81
2023/12/28 11:35:10;;;;;;;14.80;13.30;;;;;;;;;;5078736;28;20463;-81
2023/12/28 11:37:38;;;;;;;14.40;13.00;;;;;;;;;;5078637;28;20371;-81
2023/12/28 11:40:15;;;;;;;14.13;12.63;;;;;;;;;;5077639;28;20376;-80
2023/12/28 11:42:51;;;;;;;14.07;12.77;;;;;;;;;;5081112;28;20404;-82
2023/12/28 11:45:17;;;;;;;14.55;13.13;;;;;;;;;;5080907;28;20483;-81
2023/12/28 11:47:44;;;;;;;25.80;18.25;;;;;;;;;;5080936;28;20412;-83
2023/12/28 11:50:10;;;;;;;21.45;16.33;;;;;;;;;;5081475;28;20379;-83
2023/12/28 11:52:36;;;;;;;19.88;16.67;;;;;;;;;;5081528;28;20444;-82
2023/12/28 11:55:04;;;;;;;16.63;14.73;;;;;;;;;;5081017;28;20436;-81
2023/12/28 11:57:30;;;;;;;16.77;15.07;;;;;;;;;;5081526;28;20380;-82
2023/12/28 11:59:57;;;;;;;17.83;15.57;;;;;;;;;;5081037;28;20386;-82
2023/12/28 12:02:24;;;;;;;25.88;19.30;;;;;;;;;;5081483;28;20428;-82
2023/12/28 12:04:50;;;;;;;15.93;14.32;;;;;;;;;;5081943;28;20382;-82
2023/12/28 12:07:16;;;;;;;14.87;13.33;;;;;;;;;;5062584;28;20400;-82
2023/12/28 12:09:42;;;;;;;18.58;15.50;;;;;;;;;;5081651;28;20395;-81
2023/12/28 12:12:08;;;;;;;17.83;14.80;;;;;;;;;;5081124;28;20807;-81
2023/12/28 12:14:35;;;;;;;17.70;15.50;;;;;;;;;;5080570;28;20376;-81
2023/12/28 12:17:01;;;;;;;17.95;15.68;;;;;;;;;;5080812;28;20425;-81
2023/12/28 12:19:27;;;;;;;20.83;17.92;;;;;;;;;;5082238;28;20410;-81
2023/12/28 12:21:54;;;;;;;15.98;14.35;;;;;;;;;;5081435;28;20376;-82
2023/12/28 12:24:20;;;;;;;18.85;15.35;;;;;;;;;;5082059;28;20391;-82
2023/12/28 12:26:46;;;;;;;16.75;15.05;;;;;;;;;;5081865;28;20380;-82
2023/12/28 12:29:14;;;;;;;16.70;14.90;;;;;;;;;;5080002;28;20395;-81
2023/12/28 12:31:41;;;;;;;14.23;12.83;;;;;;;;;;5077501;28;20426;-80
2023/12/28 12:34:08;;;;;;;15.05;13.55;;;;;;;;;;5076805;28;20387;-81
2023/12/28 12:36:34;;;;;;;14.00;12.70;;;;;;;;;;5087422;28;20413;-81
2023/12/28 12:39:00;;;;;;;12.07;10.93;;;;;;;;;;5098025;28;20371;-81
2023/12/28 12:41:26;;;;;;;12.40;11.30;;;;;;;;;;5079948;28;20404;-81
2023/12/28 12:43:55;;;;;;;11.93;10.65;;;;;;;;;;5098568;28;20410;-80
2023/12/28 12:46:21;;;;;;;13.15;11.90;;;;;;;;;;5101540;28;20397;-82
2023/12/28 12:49:02;;;;;;;13.15;11.90;;;;;;;;;;5099834;28;20859;-82
2023/12/28 12:51:28;;;;;;;12.63;11.43;;;;;;;;;;5097764;28;20382;-83
2023/12/28 12:54:00;;;;;;;13.40;12.10;;;;;;;;;;5097214;28;20414;-82
2023/12/28 12:56:27;;;;;;;13.52;11.88;;;;;;;;;;5098706;28;20374;-82
2023/12/28 12:58:53;;;;;;;13.07;11.77;;;;;;;;;;5098041;28;20889;-82
2023/12/28 13:01:19;;;;;;;13.23;11.82;;;;;;;;;;5098336;28;20382;-82
2023/12/28 13:03:48;;;;;;;14.43;12.95;;;;;;;;;;5098511;28;20419;-81
2023/12/28 13:06:14;;;;;;;15.87;13.83;;;;;;;;;;5098296;28;20404;-82
2023/12/28 13:08:40;;;;;;;16.90;15.20;;;;;;;;;;5097819;28;20747;-82
2023/12/28 13:11:09;;;;;;;16.85;14.57;;;;;;;;;;5099221;28;20374;-82
2023/12/28 13:13:35;;;;;;;15.20;13.80;;;;;;;;;;5098011;28;20413;-82
2023/12/28 13:16:02;;;;;;;16.05;14.43;;;;;;;;;;5097430;28;20689;-81
2023/12/28 13:18:28;;;;;;;15.35;13.82;;;;;;;;;;5078740;28;20727;-81
2023/12/28 13:20:54;;;;;;;15.03;13.60;;;;;;;;;;5097782;28;20466;-82
2023/12/28 13:23:20;;;;;;;16.65;15.05;;;;;;;;;;5097545;28;20482;-83
2023/12/28 13:25:46;;;;;;;17.20;14.93;;;;;;;;;;5079003;28;20402;-82
2023/12/28 13:28:13;;;;;;;17.92;15.60;;;;;;;;;;5096797;28;20391;-82
2023/12/28 13:30:39;;;;;;;15.30;13.80;;;;;;;;;;5076780;28;20391;-82
2023/12/28 13:33:05;;;;;;;15.23;13.65;;;;;;;;;;5076794;28;20414;-82
2023/12/28 13:35:34;;;;;;;13.95;12.10;;;;;;;;;;5076303;28;20402;-82
2023/12/28 13:38:03;;;;;;;13.67;12.40;;;;;;;;;;5076764;28;20775;-82
2023/12/28 13:40:32;;;;;;;14.45;13.05;;;;;;;;;;5061346;28;20715;-81
2023/12/28 13:42:58;;;;;;;13.02;11.70;;;;;;;;;;5076866;28;20410;-81
2023/12/28 13:45:24;;;;;;;13.18;12.05;;;;;;;;;;5078105;28;20395;-82
2023/12/28 13:47:50;;;;;;;14.43;13.13;;;;;;;;;;5060121;28;20384;-83
2023/12/28 13:50:16;;;;;;;14.17;12.77;;;;;;;;;;5075383;28;20406;-81
2023/12/28 13:52:42;;;;;;;14.68;13.13;;;;;;;;;;5058320;28;20410;-81
2023/12/28 13:55:08;;;;;;;14.43;13.02;;;;;;;;;;5077351;28;20934;-81
2023/12/28 13:57:34;;;;;;;13.07;11.88;;;;;;;;;;5080575;28;20387;-81
2023/12/28 14:00:01;;;;;;;13.38;11.98;;;;;;;;;;5077462;28;20402;-82
2023/12/28 14:02:29;;;;;;;12.95;11.77;;;;;;;;;;5076840;28;20375;-82
2023/12/28 14:04:56;;;;;;;13.40;12.10;;;;;;;;;;5074160;28;20766;-80
2023/12/28 14:07:25;;;;;;;13.43;12.05;;;;;;;;;;5075109;28;20384;-83
2023/12/28 14:09:51;;;;;;;27.13;21.40;;;;;;;;;;5073718;28;20862;-82
2023/12/28 14:12:17;;;;;;;19.35;16.67;;;;;;;;;;5073185;28;20522;-83
2023/12/28 14:14:43;;;;;;;12.17;11.07;;;;;;;;;;5056036;28;20869;-83
2023/12/28 14:17:09;;;;;;;11.45;10.48;;;;;;;;;;5072876;28;20384;-84
2023/12/28 14:19:35;;;;;;;11.50;10.40;;;;;;;;;;5074353;28;20384;-83
2023/12/28 14:22:02;;;;;;;12.80;11.48;;;;;;;;;;5073364;28;20387;-84
2023/12/28 14:24:28;;;;;;;11.98;10.82;;;;;;;;;;5074736;28;20427;-84
2023/12/28 14:26:55;;;;;;;11.23;10.23;;;;;;;;;;5074172;28;20407;-84